createdAt,value
2019-02-08T00:01:30.578Z,67.00
2019-02-08T00:03:59.171Z,67.10
2019-02-08T00:06:27.708Z,67.00
2019-02-08T00:08:56.225Z,67.10
2019-02-08T00:11:24.282Z,67.00
2019-02-08T00:13:52.444Z,67.10
2019-02-08T00:16:20.526Z,67.20
2019-02-08T00:18:48.564Z,67.40
2019-02-08T00:21:16.829Z,67.50
2019-02-08T00:23:44.798Z,67.70
2019-02-08T00:26:13.196Z,67.80
2019-02-08T00:28:41.293Z,67.60
2019-02-08T00:31:09.539Z,67.80
2019-02-08T00:33:37.814Z,67.90
2019-02-08T00:36:06.086Z,68.00
2019-02-08T00:38:34.451Z,68.90
2019-02-08T00:43:48.535Z,68.70
2019-02-08T00:46:16.440Z,68.50
2019-02-08T00:48:44.825Z,68.40
2019-02-08T00:51:12.791Z,68.60
2019-02-08T00:53:40.786Z,69.00
2019-02-08T00:56:09.147Z,68.60
2019-02-08T00:58:37.456Z,68.70
2019-02-08T01:01:05.852Z,68.80
2019-02-08T01:03:34.125Z,68.60
2019-02-08T01:06:03.082Z,68.70
2019-02-08T01:08:31.243Z,68.80
2019-02-08T01:10:59.208Z,70.20
2019-02-08T01:13:28.496Z,70.40
2019-02-08T01:15:56.682Z,70.60
2019-02-08T01:18:24.802Z,70.60
2019-02-08T01:20:52.935Z,70.60
2019-02-08T01:23:21.545Z,70.40
2019-02-08T01:25:49.614Z,70.50
2019-02-08T01:28:17.677Z,70.10
2019-02-08T01:30:46.103Z,70.10
2019-02-08T01:33:15.020Z,70.00
2019-02-08T01:35:43.002Z,69.90
2019-02-08T01:38:10.949Z,69.50
2019-02-08T01:40:39.255Z,69.40
2019-02-08T01:43:07.800Z,69.10
2019-02-08T01:45:36.034Z,69.20
2019-02-08T01:48:05.144Z,69.00
2019-02-08T01:50:33.547Z,69.20
2019-02-08T01:53:02.159Z,69.40
2019-02-08T01:55:30.741Z,70.30
2019-02-08T01:57:59.328Z,70.60
2019-02-08T02:00:32.784Z,70.60
2019-02-08T02:03:01.583Z,70.80
2019-02-08T02:05:30.001Z,70.90
2019-02-08T02:07:58.075Z,70.90
2019-02-08T02:10:31.224Z,71.00
2019-02-08T02:12:59.435Z,71.10
2019-02-08T02:15:27.778Z,70.80
2019-02-08T02:17:56.271Z,70.40
2019-02-08T02:20:26.920Z,70.50
2019-02-08T02:22:55.004Z,70.80
2019-02-08T02:25:23.733Z,71.10
2019-02-08T02:27:51.915Z,71.30
2019-02-08T02:30:23.351Z,71.60
2019-02-08T02:32:51.887Z,71.10
2019-02-08T02:35:20.563Z,71.20
2019-02-08T02:37:48.990Z,71.30
2019-02-08T02:40:17.500Z,71.00
2019-02-08T02:42:45.831Z,71.50
2019-02-08T02:45:16.837Z,71.40
2019-02-08T02:47:45.241Z,71.70
2019-02-08T02:50:13.569Z,72.80
2019-02-08T02:52:42.102Z,72.40
2019-02-08T02:55:11.687Z,73.00
2019-02-08T02:57:40.143Z,73.10
2019-02-08T03:00:14.984Z,72.60
2019-02-08T03:02:43.097Z,72.50
2019-02-08T03:05:11.352Z,72.80
2019-02-08T03:07:39.399Z,72.90
2019-02-08T03:10:08.865Z,72.60
2019-02-08T03:12:36.987Z,72.50
2019-02-08T03:15:05.931Z,72.00
2019-02-08T03:17:33.894Z,72.30
2019-02-08T03:20:02.041Z,72.30
2019-02-08T03:22:30.110Z,72.30
2019-02-08T03:25:10.873Z,72.20
2019-02-08T03:27:39.138Z,72.30
2019-02-08T03:30:10.060Z,72.70
2019-02-08T03:32:38.426Z,72.90
2019-02-08T03:35:09.198Z,73.00
2019-02-08T03:37:37.373Z,72.70
2019-02-08T03:40:08.538Z,72.60
2019-02-08T03:42:37.020Z,72.60
2019-02-08T03:45:07.304Z,73.90
2019-02-08T03:47:35.287Z,74.40
2019-02-08T03:50:04.781Z,74.00
2019-02-08T03:52:33.455Z,74.10
2019-02-08T03:55:01.774Z,74.50
2019-02-08T03:57:30.156Z,75.60
2019-02-08T03:59:58.510Z,75.30
2019-02-08T04:02:26.675Z,75.80
2019-02-08T04:04:55.280Z,75.80
2019-02-08T04:07:23.439Z,75.30
2019-02-08T04:09:51.454Z,75.60
2019-02-08T04:12:19.450Z,76.30
2019-02-08T04:14:47.679Z,76.40
2019-02-08T04:17:15.691Z,76.40
2019-02-08T04:19:43.828Z,76.60
2019-02-08T04:22:11.898Z,76.80
2019-02-08T04:24:40.098Z,77.10
2019-02-08T04:27:08.082Z,77.00
2019-02-08T04:29:36.756Z,76.70
2019-02-08T04:32:05.211Z,77.60
2019-02-08T04:34:33.327Z,78.70
2019-02-08T04:37:01.285Z,79.40
2019-02-08T04:39:29.210Z,78.80
2019-02-08T04:41:57.593Z,78.90
2019-02-08T04:44:25.707Z,79.10
2019-02-08T04:46:53.708Z,79.40
2019-02-08T04:49:21.793Z,79.60
2019-02-08T04:51:49.807Z,79.50
2019-02-08T04:54:17.892Z,79.40
2019-02-08T04:56:47.277Z,79.70
2019-02-08T04:59:15.382Z,79.60
2019-02-08T05:01:43.691Z,79.70
2019-02-08T05:04:12.145Z,79.80
2019-02-08T05:06:40.590Z,79.30
2019-02-08T05:09:08.532Z,79.00
2019-02-08T05:11:36.586Z,79.20
2019-02-08T05:14:04.867Z,79.30
2019-02-08T05:16:33.028Z,79.30
2019-02-08T05:19:01.474Z,79.00
2019-02-08T05:21:29.766Z,78.50
2019-02-08T05:23:58.165Z,78.50
2019-02-08T05:26:26.154Z,78.40
2019-02-08T05:28:54.232Z,78.90
2019-02-08T05:31:22.188Z,79.10
2019-02-08T05:33:51.645Z,79.00
2019-02-08T05:36:19.743Z,78.90
2019-02-08T05:38:47.718Z,79.10
2019-02-08T05:41:15.773Z,79.10
2019-02-08T05:43:43.681Z,79.30
2019-02-08T05:46:11.664Z,79.70
2019-02-08T05:48:40.114Z,78.70
2019-02-08T05:51:08.258Z,78.60
2019-02-08T05:53:36.343Z,78.80
2019-02-08T05:56:04.492Z,78.00
2019-02-08T05:58:32.736Z,78.00
2019-02-08T06:01:01.055Z,77.90
2019-02-08T06:03:29.031Z,78.20
2019-02-08T06:05:57.135Z,78.60
2019-02-08T06:08:25.288Z,78.90
2019-02-08T06:10:53.526Z,79.10
2019-02-08T06:13:21.500Z,78.80
2019-02-08T06:15:49.485Z,78.80
2019-02-08T06:18:17.459Z,78.50
2019-02-08T06:20:45.710Z,78.40
2019-02-08T06:23:13.963Z,78.30
2019-02-08T06:25:42.345Z,78.50
2019-02-08T06:28:10.376Z,78.50
2019-02-08T06:30:38.390Z,78.30
2019-02-08T06:33:06.887Z,78.10
2019-02-08T06:35:35.139Z,78.50
2019-02-08T06:38:03.559Z,78.90
2019-02-08T06:40:32.663Z,79.10
2019-02-08T06:43:00.869Z,79.40
2019-02-08T06:45:29.731Z,79.10
2019-02-08T06:47:57.827Z,79.30
2019-02-08T06:50:25.974Z,79.50
2019-02-08T06:52:54.327Z,79.90
2019-02-08T06:55:23.349Z,80.00
2019-02-08T06:58:14.834Z,80.10
2019-02-08T07:01:05.723Z,80.20
2019-02-08T07:04:02.187Z,80.00
2019-02-08T07:06:55.104Z,80.20
2019-02-08T07:09:42.655Z,79.90
2019-02-08T07:12:32.630Z,79.40
2019-02-08T07:15:10.835Z,79.20
2019-02-08T07:17:50.033Z,79.10
2019-02-08T07:20:30.591Z,79.20
2019-02-08T07:23:06.879Z,79.40
2019-02-08T07:26:09.470Z,79.30
2019-02-08T07:28:42.915Z,79.70
2019-02-08T07:31:17.591Z,79.30
2019-02-08T07:34:05.327Z,79.30
2019-02-08T07:36:47.967Z,79.80
2019-02-08T07:39:48.150Z,80.40
2019-02-08T07:42:47.535Z,80.40
2019-02-08T07:45:21.898Z,80.30
2019-02-08T07:48:08.052Z,80.30
2019-02-08T07:50:41.058Z,80.30
2019-02-08T07:53:20.663Z,80.80
2019-02-08T07:56:04.855Z,81.10
2019-02-08T07:58:55.175Z,81.00
2019-02-08T08:01:48.616Z,81.60
2019-02-08T08:04:34.817Z,81.80
2019-02-08T08:07:25.436Z,82.30
2019-02-08T08:10:28.112Z,82.60
2019-02-08T08:13:11.072Z,82.80
2019-02-08T08:15:59.599Z,82.80
2019-02-08T08:18:45.606Z,83.20
2019-02-08T08:21:48.315Z,83.20
2019-02-08T08:24:48.438Z,82.80
2019-02-08T08:27:23.318Z,83.00
2019-02-08T08:30:10.031Z,82.80
2019-02-08T08:33:07.552Z,82.60
2019-02-08T08:36:21.050Z,82.20
2019-02-08T08:39:48.839Z,81.50
2019-02-08T08:43:07.319Z,81.50
2019-02-08T08:46:07.660Z,81.90
2019-02-08T08:49:03.079Z,80.30
2019-02-08T08:52:07.269Z,79.80
2019-02-08T08:55:12.756Z,79.40
2019-02-08T08:58:30.349Z,79.20
2019-02-08T09:01:31.441Z,79.10
2019-02-08T09:04:36.645Z,78.80
2019-02-08T09:08:00.783Z,78.30
2019-02-08T09:11:06.300Z,78.30
2019-02-08T09:14:23.958Z,77.30
2019-02-08T09:17:24.840Z,77.80
2019-02-08T09:20:31.074Z,78.60
2019-02-08T09:23:35.636Z,77.30
2019-02-08T09:26:30.415Z,76.60
2019-02-08T09:29:47.588Z,78.00
2019-02-08T09:33:01.854Z,77.80
2019-02-08T09:36:35.686Z,76.90
2019-02-08T09:39:47.099Z,75.30
2019-02-08T09:43:00.043Z,74.50
2019-02-08T09:46:05.839Z,76.20
2019-02-08T09:49:19.958Z,75.00
2019-02-08T09:52:44.198Z,73.90
2019-02-08T09:55:57.361Z,73.70
2019-02-08T09:59:08.284Z,74.60
2019-02-08T10:02:32.689Z,74.10
2019-02-08T10:05:45.003Z,73.90
2019-02-08T10:08:56.652Z,71.20
2019-02-08T10:12:05.939Z,63.40
2019-02-08T10:15:35.395Z,63.10
2019-02-08T10:19:00.368Z,66.30
2019-02-08T10:22:04.369Z,64.80
2019-02-08T10:25:23.452Z,63.60
2019-02-08T10:28:43.506Z,62.70
2019-02-08T10:31:52.895Z,58.10
2019-02-08T10:35:25.590Z,57.90
2019-02-08T10:38:43.869Z,56.60
2019-02-08T10:41:50.097Z,58.60
2019-02-08T10:45:18.117Z,58.80
2019-02-08T10:48:30.691Z,59.40
2019-02-08T10:51:49.399Z,57.00
2019-02-08T10:54:53.603Z,56.90
2019-02-08T10:58:08.313Z,55.20
2019-02-08T11:01:20.661Z,54.20
2019-02-08T11:04:32.921Z,53.90
2019-02-08T11:07:34.988Z,52.50
2019-02-08T11:10:43.515Z,50.70
2019-02-08T11:13:57.423Z,51.80
2019-02-08T11:17:26.021Z,49.40
2019-02-08T11:19:57.171Z,45.80
2019-02-08T11:22:25.446Z,47.40
2019-02-08T11:24:53.592Z,43.50
2019-02-08T11:27:21.655Z,44.90
2019-02-08T11:29:49.695Z,45.00
2019-02-08T11:32:17.909Z,45.10
2019-02-08T11:34:46.004Z,43.00
2019-02-08T11:37:14.130Z,43.00
2019-02-08T11:39:42.234Z,44.50
2019-02-08T11:42:10.254Z,44.50
2019-02-08T11:44:38.210Z,44.50
2019-02-08T11:47:06.196Z,44.00
2019-02-08T11:49:34.246Z,45.70
2019-02-08T11:52:02.287Z,44.90
2019-02-08T11:54:30.262Z,43.80
2019-02-08T11:56:58.272Z,44.00
2019-02-08T11:59:26.370Z,43.60
2019-02-08T12:01:54.446Z,44.60
2019-02-08T12:04:22.580Z,45.60
2019-02-08T12:06:50.719Z,43.50
2019-02-08T12:09:19.021Z,42.90
2019-02-08T12:11:48.445Z,43.40
2019-02-08T12:14:20.177Z,43.30
2019-02-08T12:16:49.574Z,43.20
2019-02-08T12:19:17.682Z,43.10
2019-02-08T12:21:45.705Z,43.20
2019-02-08T12:24:13.691Z,42.80
2019-02-08T12:26:41.811Z,42.70
2019-02-08T12:29:09.884Z,43.20
2019-02-08T12:31:38.026Z,42.60
2019-02-08T12:34:06.699Z,41.70
2019-02-08T12:36:35.031Z,40.40
2019-02-08T12:39:08.242Z,40.90
2019-02-08T12:41:36.377Z,40.40
2019-02-08T12:44:04.846Z,41.00
2019-02-08T12:46:32.767Z,40.50
2019-02-08T12:49:00.816Z,42.10
2019-02-08T12:51:28.790Z,41.20
2019-02-08T12:53:56.822Z,39.90
2019-02-08T12:56:24.848Z,40.40
2019-02-08T12:58:52.886Z,39.50
2019-02-08T13:01:21.019Z,41.10
2019-02-08T13:03:48.998Z,39.20
2019-02-08T13:06:17.177Z,39.60
2019-02-08T13:08:45.202Z,39.70
2019-02-08T13:11:14.215Z,38.90
2019-02-08T13:13:42.110Z,39.30
2019-02-08T13:16:10.246Z,39.60
2019-02-08T13:18:38.255Z,39.00
2019-02-08T13:21:06.413Z,39.30
2019-02-08T13:23:34.395Z,40.30
2019-02-08T13:26:02.396Z,40.50
2019-02-08T13:28:30.384Z,38.90
2019-02-08T13:30:58.290Z,40.00
2019-02-08T13:33:26.280Z,38.40
2019-02-08T13:35:54.309Z,40.40
2019-02-08T13:38:22.367Z,37.90
2019-02-08T13:40:50.638Z,38.20
2019-02-08T13:43:18.668Z,36.50
2019-02-08T13:45:46.703Z,37.50
2019-02-08T13:48:14.799Z,37.50
2019-02-08T13:50:42.843Z,36.90
2019-02-08T13:53:10.885Z,36.50
2019-02-08T13:55:38.914Z,36.60
2019-02-08T13:58:07.167Z,37.10
2019-02-08T14:00:36.222Z,38.40
2019-02-08T14:03:05.347Z,38.90
2019-02-08T14:05:33.733Z,39.70
2019-02-08T14:08:01.649Z,38.00
2019-02-08T14:10:30.077Z,38.00
2019-02-08T14:12:58.294Z,37.70
2019-02-08T14:16:06.998Z,37.90
2019-02-08T14:18:34.600Z,37.40
2019-02-08T14:21:02.663Z,36.90
2019-02-08T14:23:31.121Z,37.60
2019-02-08T14:25:59.126Z,37.00
2019-02-08T14:28:27.355Z,37.40
2019-02-08T14:30:55.725Z,37.90
2019-02-08T14:33:23.759Z,38.60
2019-02-08T14:35:51.741Z,38.70
2019-02-08T14:38:20.998Z,38.10
2019-02-08T14:40:49.081Z,37.60
2019-02-08T14:43:17.165Z,39.40
2019-02-08T14:45:45.250Z,39.80
2019-02-08T14:48:13.239Z,39.30
2019-02-08T14:50:41.395Z,38.50
2019-02-08T14:53:09.391Z,38.70
2019-02-08T14:55:37.377Z,37.80
2019-02-08T14:58:06.555Z,37.60
2019-02-08T15:00:34.707Z,38.40
2019-02-08T15:03:02.743Z,39.50
2019-02-08T15:05:30.941Z,40.50
2019-02-08T15:07:59.115Z,40.50
2019-02-08T15:10:32.813Z,40.70
2019-02-08T15:13:01.023Z,40.40
2019-02-08T15:16:17.148Z,40.80
2019-02-08T15:18:43.059Z,40.80
2019-02-08T15:21:11.063Z,40.90
2019-02-08T15:23:39.294Z,41.30
2019-02-08T15:26:07.382Z,40.80
2019-02-08T15:28:35.421Z,40.90
2019-02-08T15:31:03.732Z,40.90
2019-02-08T15:33:32.075Z,40.60
2019-02-08T15:36:00.103Z,40.70
2019-02-08T15:38:28.126Z,41.40
2019-02-08T15:41:15.568Z,41.40
2019-02-08T15:43:59.735Z,41.90
2019-02-08T15:46:28.076Z,41.50
2019-02-08T15:48:56.163Z,41.70
2019-02-08T15:51:24.095Z,42.20
2019-02-08T15:53:52.194Z,42.80
2019-02-08T15:56:20.354Z,42.60
2019-02-08T15:58:48.472Z,42.60
2019-02-08T16:01:16.682Z,44.40
2019-02-08T16:03:44.766Z,46.50
2019-02-08T16:06:12.742Z,48.10
2019-02-08T16:08:40.932Z,48.70
2019-02-08T16:11:09.329Z,49.40
2019-02-08T16:13:37.337Z,49.20
2019-02-08T16:16:33.740Z,49.80
2019-02-08T16:19:01.688Z,49.80
2019-02-08T16:21:29.763Z,49.70
2019-02-08T16:23:57.801Z,50.00
2019-02-08T16:26:25.905Z,50.00
2019-02-08T16:28:53.968Z,49.70
2019-02-08T16:31:22.031Z,49.70
2019-02-08T16:33:50.155Z,50.30
2019-02-08T16:36:18.094Z,50.60
2019-02-08T16:38:47.044Z,51.00
2019-02-08T16:41:15.079Z,50.90
2019-02-08T16:43:43.055Z,50.60
2019-02-08T16:46:11.475Z,50.50
2019-02-08T16:48:39.440Z,50.30
2019-02-08T16:51:07.802Z,50.00
2019-02-08T16:53:35.894Z,47.00
2019-02-08T16:56:04.662Z,45.00
2019-02-08T16:58:32.822Z,45.20
2019-02-08T17:01:00.953Z,46.30
2019-02-08T17:03:29.059Z,46.90
2019-02-08T17:05:57.194Z,46.80
2019-02-08T17:08:25.141Z,47.10
2019-02-08T17:10:53.136Z,48.60
2019-02-08T17:13:21.078Z,48.40
2019-02-08T17:16:34.475Z,48.50
2019-02-08T17:19:00.741Z,46.90
2019-02-08T17:21:28.768Z,46.50
2019-02-08T17:23:56.974Z,47.50
2019-02-08T17:26:25.546Z,48.20
2019-02-08T17:28:54.225Z,48.20
2019-02-08T17:31:22.986Z,48.30
2019-02-08T17:33:51.816Z,48.50
2019-02-08T17:36:20.703Z,48.90
2019-02-08T17:38:49.614Z,48.50
2019-02-08T17:41:18.376Z,47.70
2019-02-08T17:43:49.024Z,48.10
2019-02-08T17:46:18.449Z,48.10
2019-02-08T17:48:47.320Z,48.50
2019-02-08T17:51:50.778Z,49.00
2019-02-08T17:54:16.535Z,49.00
2019-02-08T17:56:45.461Z,49.00
2019-02-08T17:59:34.858Z,48.90
2019-02-08T18:02:21.825Z,48.80
2019-02-08T18:04:50.123Z,48.80
2019-02-08T18:07:57.685Z,48.90
2019-02-08T18:10:26.114Z,48.80
2019-02-08T18:12:55.098Z,49.10
2019-02-08T18:16:03.710Z,49.20
2019-02-08T18:18:31.444Z,49.80
2019-02-08T18:21:02.992Z,49.10
2019-02-08T18:23:31.987Z,49.90
2019-02-08T18:26:00.809Z,50.10
2019-02-08T18:28:29.337Z,50.40
2019-02-08T18:30:58.506Z,50.80
2019-02-08T18:33:27.318Z,50.80
2019-02-08T18:35:56.042Z,50.80
2019-02-08T18:38:24.858Z,51.10
2019-02-08T18:40:53.751Z,51.30
2019-02-08T18:43:22.488Z,52.00
2019-02-08T18:45:51.446Z,52.10
2019-02-08T18:48:20.282Z,52.20
2019-02-08T18:50:51.170Z,52.40
2019-02-08T18:53:20.862Z,52.60
2019-02-08T18:55:49.667Z,52.70
2019-02-08T18:58:19.519Z,52.50
2019-02-08T19:00:49.755Z,52.70
2019-02-08T19:03:18.682Z,52.60
2019-02-08T19:05:47.559Z,52.50
2019-02-08T19:08:16.580Z,52.80
2019-02-08T19:10:45.495Z,53.00
2019-02-08T19:13:15.514Z,53.00
2019-02-08T19:16:35.396Z,53.10
2019-02-08T19:19:02.112Z,52.80
2019-02-08T19:21:31.118Z,52.50
2019-02-08T19:24:00.003Z,52.40
2019-02-08T19:26:28.957Z,52.30
2019-02-08T19:28:57.787Z,52.00
2019-02-08T19:31:26.696Z,51.90
2019-02-08T19:33:55.583Z,51.00
2019-02-08T19:36:24.676Z,51.00
2019-02-08T19:38:53.623Z,51.20
2019-02-08T19:41:22.506Z,51.90
2019-02-08T19:43:51.289Z,51.80
2019-02-08T19:46:20.142Z,51.70
2019-02-08T19:48:48.784Z,51.40
2019-02-08T19:51:17.913Z,50.90
2019-02-08T19:53:46.706Z,50.60
2019-02-08T19:56:15.391Z,50.30
2019-02-08T19:58:44.015Z,49.80
2019-02-08T20:01:12.912Z,50.40
2019-02-08T20:03:41.790Z,50.80
2019-02-08T20:06:10.807Z,50.70
2019-02-08T20:08:39.636Z,50.60
2019-02-08T20:11:08.530Z,50.50
2019-02-08T20:13:37.486Z,51.10
2019-02-08T20:16:49.278Z,50.70
2019-02-08T20:19:16.383Z,51.10
2019-02-08T20:21:45.344Z,50.90
2019-02-08T20:24:14.253Z,51.40
2019-02-08T20:26:43.008Z,52.20
2019-02-08T20:29:11.758Z,52.30
2019-02-08T20:31:40.511Z,52.20
2019-02-08T20:34:09.424Z,52.10
2019-02-08T20:36:38.335Z,52.10
2019-02-08T20:39:09.220Z,52.00
2019-02-08T20:41:37.950Z,52.10
2019-02-08T20:44:06.772Z,52.30
2019-02-08T20:46:35.568Z,52.50
2019-02-08T20:49:04.505Z,52.10
2019-02-08T20:51:33.370Z,51.80
2019-02-08T20:54:02.197Z,52.10
2019-02-08T20:56:31.051Z,52.10
2019-02-08T20:58:59.963Z,51.80
2019-02-08T21:01:28.926Z,52.00
2019-02-08T21:03:57.652Z,52.10
2019-02-08T21:06:26.662Z,52.00
2019-02-08T21:08:55.552Z,52.00
2019-02-08T21:11:25.346Z,52.10
2019-02-08T21:13:53.623Z,52.00
2019-02-08T21:16:54.121Z,52.00
2019-02-08T21:19:22.475Z,52.30
2019-02-08T21:21:51.219Z,52.30
2019-02-08T21:24:19.601Z,52.20
2019-02-08T21:27:34.449Z,52.40
2019-02-08T21:30:01.284Z,52.60
2019-02-08T21:32:29.542Z,52.80
2019-02-08T21:34:57.514Z,52.70
2019-02-08T21:37:25.614Z,52.50
2019-02-08T21:39:53.670Z,52.20
2019-02-08T21:42:21.727Z,52.40
2019-02-08T21:44:49.791Z,52.80
2019-02-08T21:47:18.114Z,53.00
2019-02-08T21:49:46.213Z,53.10
2019-02-08T21:52:14.315Z,52.60
2019-02-08T21:54:42.526Z,52.90
2019-02-08T21:57:10.467Z,52.70
2019-02-08T21:59:38.471Z,52.90
2019-02-08T22:02:06.767Z,53.20
2019-02-08T22:04:34.675Z,53.10
2019-02-08T22:07:03.244Z,53.10
2019-02-08T22:09:31.190Z,53.30
2019-02-08T22:11:59.395Z,53.50
2019-02-08T22:14:55.834Z,53.70
2019-02-08T22:17:22.959Z,53.90
2019-02-08T22:19:51.095Z,53.60
2019-02-08T22:22:19.218Z,53.40
2019-02-08T22:24:47.251Z,53.40
2019-02-08T22:27:15.360Z,53.40
2019-02-08T22:29:43.503Z,53.30
2019-02-08T22:32:11.619Z,53.60
2019-02-08T22:34:39.583Z,53.90
2019-02-08T22:37:07.705Z,53.70
2019-02-08T22:39:35.812Z,53.10
2019-02-08T22:42:04.137Z,53.00
2019-02-08T22:44:32.499Z,53.80
2019-02-08T22:47:00.505Z,54.50
2019-02-08T22:49:28.999Z,54.90
2019-02-08T22:51:57.052Z,55.20
2019-02-08T22:54:25.093Z,55.20
2019-02-08T22:56:53.126Z,55.00
2019-02-08T22:59:22.626Z,55.00
2019-02-08T23:01:52.593Z,55.40
2019-02-08T23:04:20.643Z,55.40
2019-02-08T23:06:50.257Z,55.70
2019-02-08T23:09:22.979Z,55.70
2019-02-08T23:11:50.903Z,55.50
2019-02-08T23:14:19.158Z,56.00
2019-02-08T23:16:47.293Z,56.20
2019-02-08T23:19:15.540Z,56.50
2019-02-08T23:21:45.771Z,56.50
2019-02-08T23:24:13.755Z,56.70
2019-02-08T23:26:41.786Z,56.80
2019-02-08T23:29:09.957Z,56.90
2019-02-08T23:31:38.094Z,57.60
2019-02-08T23:34:06.198Z,57.00
2019-02-08T23:36:34.342Z,57.30
2019-02-08T23:39:02.671Z,57.30
2019-02-08T23:41:30.708Z,57.40
2019-02-08T23:43:58.708Z,57.50
2019-02-08T23:46:26.724Z,57.60
2019-02-08T23:48:54.697Z,57.80
2019-02-08T23:51:22.739Z,57.90
2019-02-08T23:53:50.875Z,57.80
2019-02-08T23:56:18.977Z,58.10
2019-02-08T23:58:47.001Z,58.00
